createdAt,value
2022-12-25T00:02:20.574Z,46.72
2022-12-25T00:04:47.167Z,41.77
2022-12-25T00:07:13.851Z,40.50
2022-12-25T00:09:40.390Z,42.60
2022-12-25T00:12:07.022Z,40.27
2022-12-25T00:14:33.862Z,40.40
2022-12-25T00:17:00.503Z,46.10
2022-12-25T00:19:27.079Z,44.63
2022-12-25T00:21:53.698Z,41.27
2022-12-25T00:24:20.242Z,48.03
2022-12-25T00:26:46.779Z,46.10
2022-12-25T00:29:14.083Z,37.93
2022-12-25T00:31:41.775Z,39.37
2022-12-25T00:34:08.533Z,42.63
2022-12-25T00:36:41.473Z,40.50
2022-12-25T00:39:08.685Z,49.47
2022-12-25T00:42:01.764Z,42.80
2022-12-25T00:44:28.547Z,41.27
2022-12-25T00:46:55.247Z,46.10
2022-12-25T00:49:23.809Z,43.30
2022-12-25T00:51:50.995Z,40.60
2022-12-25T00:54:17.882Z,45.37
2022-12-25T00:56:44.880Z,45.77
2022-12-25T00:59:12.227Z,47.03
2022-12-25T01:01:39.552Z,46.53
2022-12-25T01:04:06.675Z,40.63
2022-12-25T01:06:33.488Z,41.17
2022-12-25T01:09:18.790Z,41.53
2022-12-25T01:11:46.052Z,42.93
2022-12-25T01:14:13.205Z,42.27
2022-12-25T01:16:40.183Z,40.27
2022-12-25T01:19:06.841Z,41.50
2022-12-25T01:21:33.900Z,42.07
2022-12-25T01:24:00.604Z,39.13
2022-12-25T01:26:28.062Z,49.87
2022-12-25T01:28:54.989Z,49.70
2022-12-25T01:31:24.154Z,50.03
2022-12-25T01:33:51.020Z,51.77
2022-12-25T01:36:22.462Z,51.80
2022-12-25T01:38:49.710Z,51.93
2022-12-25T01:41:19.523Z,55.03
2022-12-25T01:44:15.447Z,57.92
2022-12-25T01:46:45.302Z,42.10
2022-12-25T01:49:16.705Z,35.15
2022-12-25T01:51:48.204Z,47.40
2022-12-25T01:54:20.422Z,45.23
2022-12-25T01:56:49.559Z,42.87
2022-12-25T01:59:19.637Z,36.53
2022-12-25T02:01:46.897Z,38.60
2022-12-25T02:04:22.277Z,38.27
2022-12-25T02:06:51.633Z,39.87
2022-12-25T02:09:19.023Z,44.92
2022-12-25T02:11:59.171Z,41.67
2022-12-25T02:14:29.904Z,38.20
2022-12-25T02:17:02.055Z,34.05
2022-12-25T02:19:52.846Z,32.63
2022-12-25T02:22:54.866Z,31.47
2022-12-25T02:25:36.511Z,36.43
2022-12-25T02:28:15.529Z,40.53
2022-12-25T02:31:10.529Z,42.90
2022-12-25T02:34:05.828Z,42.10
2022-12-25T02:36:44.479Z,40.63
2022-12-25T02:39:48.824Z,35.93
2022-12-25T02:42:57.754Z,32.60
2022-12-25T02:46:02.428Z,38.73
2022-12-25T02:48:52.668Z,35.43
2022-12-25T02:51:41.981Z,37.50
2022-12-25T02:54:33.164Z,34.65
2022-12-25T02:57:22.659Z,33.93
2022-12-25T03:00:09.221Z,30.30
2022-12-25T03:02:55.854Z,59.40
2022-12-25T03:05:44.992Z,70.67
2022-12-25T03:08:16.694Z,50.57
2022-12-25T03:11:09.126Z,36.73
2022-12-25T03:13:40.084Z,28.93
2022-12-25T03:16:26.162Z,26.80
2022-12-25T03:18:55.980Z,25.47
2022-12-25T03:21:41.101Z,28.83
2022-12-25T03:24:26.663Z,31.73
2022-12-25T03:26:56.178Z,35.90
2022-12-25T03:29:48.165Z,33.53
2022-12-25T03:32:42.879Z,31.37
2022-12-25T03:35:25.492Z,26.60
2022-12-25T03:38:45.302Z,29.13
2022-12-25T03:41:40.801Z,28.13
2022-12-25T03:45:23.833Z,27.87
2022-12-25T03:47:53.779Z,28.50
2022-12-25T03:50:57.268Z,28.92
2022-12-25T03:53:50.811Z,23.40
2022-12-25T03:56:37.031Z,24.70
2022-12-25T03:59:24.188Z,30.10
2022-12-25T04:02:10.615Z,26.43
2022-12-25T04:04:56.421Z,25.17
2022-12-25T04:07:41.285Z,28.30
2022-12-25T04:10:27.338Z,26.33
2022-12-25T04:13:12.495Z,29.17
2022-12-25T04:15:57.952Z,29.13
2022-12-25T04:18:43.132Z,26.00
2022-12-25T04:21:28.630Z,25.23
2022-12-25T04:24:33.873Z,25.87
2022-12-25T04:27:19.043Z,27.20
2022-12-25T04:30:04.633Z,30.03
2022-12-25T04:32:50.226Z,30.27
2022-12-25T04:35:35.618Z,26.50
2022-12-25T04:38:02.216Z,27.13
2022-12-25T04:40:28.864Z,28.57
2022-12-25T04:42:55.581Z,23.80
2022-12-25T04:45:22.276Z,26.97
2022-12-25T04:47:48.860Z,24.40
2022-12-25T04:50:15.519Z,24.90
2022-12-25T04:52:42.315Z,24.60
2022-12-25T04:55:10.710Z,26.20
2022-12-25T04:57:37.542Z,25.63
2022-12-25T05:00:05.635Z,23.73
2022-12-25T05:02:32.912Z,21.40
2022-12-25T05:04:59.687Z,22.90
2022-12-25T05:07:26.332Z,22.50
2022-12-25T05:09:53.005Z,23.20
2022-12-25T05:12:19.591Z,21.17
2022-12-25T05:14:46.902Z,21.07
2022-12-25T05:17:13.674Z,23.63
2022-12-25T05:19:40.301Z,19.87
2022-12-25T05:22:06.905Z,23.40
2022-12-25T05:24:33.595Z,20.23
2022-12-25T05:27:00.300Z,23.17
2022-12-25T05:29:26.929Z,22.57
2022-12-25T05:31:53.444Z,22.43
2022-12-25T05:34:20.006Z,18.63
2022-12-25T05:36:46.660Z,22.40
2022-12-25T05:39:13.277Z,22.40
2022-12-25T05:41:40.604Z,28.07
2022-12-25T05:44:07.218Z,27.47
2022-12-25T05:46:33.862Z,25.57
2022-12-25T05:49:00.572Z,20.57
2022-12-25T05:51:27.295Z,23.27
2022-12-25T05:53:53.889Z,19.23
2022-12-25T05:56:20.568Z,20.90
2022-12-25T05:58:47.184Z,20.07
2022-12-25T06:01:19.333Z,23.47
2022-12-25T06:03:46.103Z,19.47
2022-12-25T06:06:13.618Z,23.53
2022-12-25T06:08:40.452Z,26.70
2022-12-25T06:11:08.462Z,23.23
2022-12-25T06:13:35.728Z,19.50
2022-12-25T06:16:07.437Z,24.70
2022-12-25T06:18:39.150Z,22.63
2022-12-25T06:21:10.890Z,20.53
2022-12-25T06:23:39.028Z,25.87
2022-12-25T06:26:08.296Z,22.70
2022-12-25T06:28:35.069Z,23.30
2022-12-25T06:31:14.769Z,20.23
2022-12-25T06:33:42.319Z,20.30
2022-12-25T06:36:14.313Z,25.57
2022-12-25T06:38:41.804Z,23.27
2022-12-25T06:41:10.963Z,18.33
2022-12-25T06:43:38.221Z,24.17
2022-12-25T06:46:10.321Z,20.87
2022-12-25T06:48:38.663Z,22.23
2022-12-25T06:51:06.779Z,24.60
2022-12-25T06:53:40.177Z,23.43
2022-12-25T06:56:15.338Z,20.80
2022-12-25T06:58:47.454Z,25.23
2022-12-25T07:01:36.016Z,23.80
2022-12-25T07:04:15.732Z,28.47
2022-12-25T07:06:42.400Z,23.27
2022-12-25T07:09:09.025Z,26.30
2022-12-25T07:11:36.277Z,23.67
2022-12-25T07:14:03.216Z,25.53
2022-12-25T07:16:29.953Z,30.93
2022-12-25T07:18:58.915Z,25.93
2022-12-25T07:21:25.616Z,26.33
2022-12-25T07:23:52.198Z,26.20
2022-12-25T07:26:19.316Z,27.17
2022-12-25T07:28:45.847Z,29.37
2022-12-25T07:31:17.422Z,26.87
2022-12-25T07:33:44.972Z,34.40
2022-12-25T07:36:12.838Z,33.03
2022-12-25T07:38:43.301Z,36.60
2022-12-25T07:41:13.146Z,39.92
2022-12-25T07:43:40.589Z,34.33
2022-12-25T07:46:07.843Z,44.17
2022-12-25T07:48:36.425Z,27.00
2022-12-25T07:51:06.063Z,23.57
2022-12-25T07:53:33.627Z,23.20
2022-12-25T07:56:03.366Z,20.40
2022-12-25T07:58:33.701Z,18.85
2022-12-25T08:01:18.261Z,21.67
2022-12-25T08:03:51.000Z,21.87
2022-12-25T08:06:18.413Z,22.77
2022-12-25T08:08:45.038Z,27.17
2022-12-25T08:11:11.862Z,21.53
2022-12-25T08:13:39.225Z,28.97
2022-12-25T08:16:08.685Z,26.00
2022-12-25T08:18:36.383Z,29.00
2022-12-25T08:21:12.697Z,25.10
2022-12-25T08:23:42.281Z,29.77
2022-12-25T08:26:12.362Z,22.40
2022-12-25T08:28:39.413Z,22.60
2022-12-25T08:31:27.752Z,21.57
2022-12-25T08:33:57.042Z,22.60
2022-12-25T08:36:24.560Z,23.13
2022-12-25T08:38:53.458Z,23.07
2022-12-25T08:41:23.205Z,31.77
2022-12-25T08:43:50.210Z,45.33
2022-12-25T08:46:17.083Z,52.17
2022-12-25T08:48:45.609Z,47.90
2022-12-25T08:51:14.849Z,43.70
2022-12-25T08:53:43.236Z,29.90
2022-12-25T08:56:10.481Z,27.03
2022-12-25T08:58:38.111Z,31.83
2022-12-25T09:01:05.675Z,23.73
2022-12-25T09:03:33.461Z,24.77
2022-12-25T09:06:18.311Z,27.80
2022-12-25T09:08:49.256Z,31.30
2022-12-25T09:11:17.479Z,36.20
2022-12-25T09:13:44.108Z,32.30
2022-12-25T09:16:13.853Z,37.23
2022-12-25T09:18:40.919Z,28.27
2022-12-25T09:21:10.613Z,32.40
2022-12-25T09:23:37.674Z,35.13
2022-12-25T09:26:06.975Z,38.90
2022-12-25T09:28:33.930Z,42.17
2022-12-25T09:31:00.925Z,44.80
2022-12-25T09:33:27.636Z,49.30
2022-12-25T09:36:05.959Z,49.03
2022-12-25T09:38:33.660Z,55.13
2022-12-25T09:41:19.352Z,55.03
2022-12-25T09:43:58.480Z,39.43
2022-12-25T09:46:33.198Z,37.30
2022-12-25T09:49:12.495Z,27.03
2022-12-25T09:51:42.328Z,26.83
2022-12-25T09:56:52.334Z,27.80
2022-12-25T09:59:25.022Z,25.03
2022-12-25T10:02:19.620Z,24.93
2022-12-25T10:05:12.965Z,24.40
2022-12-25T10:08:15.394Z,24.33
2022-12-25T10:11:02.908Z,25.93
2022-12-25T10:13:48.203Z,25.40
2022-12-25T10:16:23.933Z,24.67
2022-12-25T10:19:23.031Z,25.00
2022-12-25T10:21:54.820Z,27.95
2022-12-25T10:24:44.287Z,28.20
2022-12-25T10:27:20.191Z,23.20
2022-12-25T10:29:52.412Z,24.07
2022-12-25T10:32:19.077Z,28.63
2022-12-25T10:34:45.844Z,32.73
2022-12-25T10:37:12.768Z,29.80
2022-12-25T10:39:45.988Z,27.73
2022-12-25T10:42:34.581Z,21.73
2022-12-25T10:45:07.951Z,30.13
2022-12-25T10:47:38.282Z,29.63
2022-12-25T10:50:11.943Z,27.30
2022-12-25T10:52:55.405Z,24.30
2022-12-25T10:55:28.126Z,22.33
2022-12-25T10:57:55.667Z,20.27
2022-12-25T11:00:25.376Z,20.67
2022-12-25T11:02:52.252Z,20.35
2022-12-25T11:05:31.395Z,22.17
2022-12-25T11:08:00.763Z,24.67
2022-12-25T11:10:33.203Z,18.80
2022-12-25T11:13:01.217Z,21.47
2022-12-25T11:15:30.794Z,21.10
2022-12-25T11:17:57.353Z,20.55
2022-12-25T11:20:24.531Z,19.67
2022-12-25T11:22:51.863Z,16.83
2022-12-25T11:25:24.031Z,21.83
2022-12-25T11:28:02.562Z,14.73
2022-12-25T11:30:31.022Z,22.77
2022-12-25T11:33:02.630Z,21.17
2022-12-25T11:35:32.698Z,15.87
2022-12-25T11:37:59.378Z,18.77
2022-12-25T11:40:42.937Z,19.80
2022-12-25T11:43:16.095Z,22.70
2022-12-25T11:45:49.123Z,19.63
2022-12-25T11:48:29.612Z,24.63
2022-12-25T11:51:01.317Z,15.50
2022-12-25T11:53:35.142Z,22.43
2022-12-25T11:56:16.095Z,10.63
2022-12-25T11:58:49.463Z,10.83
2022-12-25T12:01:37.403Z,10.10
2022-12-25T12:04:14.880Z,12.23
2022-12-25T12:07:00.930Z,8.33
2022-12-25T12:09:36.634Z,11.67
2022-12-25T12:12:18.523Z,10.37
2022-12-25T12:15:24.358Z,12.60
2022-12-25T12:17:51.048Z,12.30
2022-12-25T12:20:31.212Z,13.23
2022-12-25T12:22:59.236Z,11.30
2022-12-25T12:25:26.977Z,9.50
2022-12-25T12:28:04.794Z,11.93
2022-12-25T12:30:36.381Z,14.27
2022-12-25T12:33:06.364Z,13.87
2022-12-25T12:35:40.505Z,13.67
2022-12-25T12:38:15.031Z,13.57
2022-12-25T12:40:45.191Z,9.87
2022-12-25T12:43:33.374Z,9.83
2022-12-25T12:46:17.985Z,15.23
2022-12-25T12:48:48.657Z,13.23
2022-12-25T12:51:27.283Z,13.60
2022-12-25T12:54:17.302Z,13.87
2022-12-25T12:57:15.335Z,25.77
2022-12-25T12:59:46.884Z,12.63
2022-12-25T13:03:06.425Z,12.33
2022-12-25T13:06:26.488Z,12.50
2022-12-25T13:09:13.273Z,10.33
2022-12-25T13:11:41.663Z,14.87
2022-12-25T13:14:17.891Z,25.07
2022-12-25T13:16:47.150Z,12.67
2022-12-25T13:19:23.018Z,17.23
2022-12-25T13:21:54.236Z,15.93
2022-12-25T13:24:26.188Z,16.70
2022-12-25T13:26:53.151Z,15.07
2022-12-25T13:29:31.008Z,14.27
2022-12-25T13:31:59.678Z,12.13
2022-12-25T13:34:42.452Z,12.57
2022-12-25T13:37:17.876Z,17.43
2022-12-25T13:40:07.221Z,13.17
2022-12-25T13:42:37.779Z,15.27
2022-12-25T13:45:21.743Z,14.90
2022-12-25T13:47:54.677Z,25.97
2022-12-25T13:50:33.330Z,32.10
2022-12-25T13:53:14.134Z,24.87
2022-12-25T13:55:42.391Z,35.03
2022-12-25T13:58:18.616Z,40.03
2022-12-25T14:00:56.792Z,50.60
2022-12-25T14:03:50.004Z,39.53
2022-12-25T14:06:28.691Z,34.13
2022-12-25T14:08:57.143Z,34.77
2022-12-25T14:11:26.384Z,27.13
2022-12-25T14:13:59.922Z,21.85
2022-12-25T14:16:27.323Z,39.60
2022-12-25T14:18:57.703Z,50.00
2022-12-25T14:21:27.907Z,27.40
2022-12-25T14:26:34.258Z,15.93
2022-12-25T14:29:16.524Z,16.25
2022-12-25T14:31:45.905Z,19.30
2022-12-25T14:34:18.644Z,22.87
2022-12-25T14:36:45.954Z,24.30
2022-12-25T14:39:31.996Z,16.63
2022-12-25T14:41:59.322Z,12.00
2022-12-25T14:44:33.824Z,13.27
2022-12-25T14:47:18.814Z,14.67
2022-12-25T14:49:47.002Z,13.03
2022-12-25T14:52:19.375Z,13.23
2022-12-25T14:54:50.064Z,20.57
2022-12-25T14:57:27.408Z,21.57
2022-12-25T15:00:03.866Z,16.30
2022-12-25T15:02:40.675Z,17.53
2022-12-25T15:05:25.049Z,13.80
2022-12-25T15:08:14.861Z,15.00
2022-12-25T15:13:30.051Z,16.53
2022-12-25T15:16:06.198Z,18.80
2022-12-25T15:18:42.724Z,14.13
2022-12-25T15:21:33.063Z,13.67
2022-12-25T15:24:00.235Z,15.70
2022-12-25T15:26:29.836Z,17.70
2022-12-25T15:28:56.894Z,19.08
2022-12-25T15:31:26.429Z,14.80
2022-12-25T15:33:58.220Z,13.90
2022-12-25T15:36:26.061Z,13.17
2022-12-25T15:38:53.429Z,19.33
2022-12-25T15:41:51.360Z,12.33
2022-12-25T15:44:20.704Z,16.00
2022-12-25T15:46:47.832Z,14.97
2022-12-25T15:49:15.410Z,15.30
2022-12-25T15:51:43.064Z,18.80
2022-12-25T15:54:10.925Z,16.20
2022-12-25T15:56:43.248Z,19.63
2022-12-25T15:59:12.024Z,17.63
2022-12-25T16:01:41.478Z,18.20
2022-12-25T16:04:08.142Z,22.00
2022-12-25T16:06:34.672Z,15.50
2022-12-25T16:09:01.268Z,17.07
2022-12-25T16:11:27.925Z,18.63
2022-12-25T16:13:54.661Z,20.27
2022-12-25T16:16:22.840Z,19.03
2022-12-25T16:18:49.586Z,22.50
2022-12-25T16:21:19.544Z,11.90
2022-12-25T16:23:46.163Z,15.55
2022-12-25T16:26:12.875Z,12.97
2022-12-25T16:28:39.401Z,14.30
2022-12-25T16:31:06.169Z,14.03
2022-12-25T16:33:33.061Z,21.00
2022-12-25T16:35:59.663Z,22.60
2022-12-25T16:38:26.596Z,21.37
2022-12-25T16:40:59.072Z,23.47
2022-12-25T16:43:26.076Z,24.37
2022-12-25T16:45:52.826Z,25.20
2022-12-25T16:48:21.859Z,14.60
2022-12-25T16:50:48.615Z,12.53
2022-12-25T16:53:15.235Z,9.43
2022-12-25T16:55:41.881Z,7.93
2022-12-25T16:58:08.499Z,9.40
2022-12-25T17:00:35.230Z,9.90
2022-12-25T17:03:02.075Z,15.03
2022-12-25T17:05:35.009Z,13.20
2022-12-25T17:08:01.647Z,32.10
2022-12-25T17:10:28.499Z,73.03
2022-12-25T17:12:55.180Z,57.97
2022-12-25T17:15:21.772Z,70.27
2022-12-25T17:17:48.393Z,71.43
2022-12-25T17:20:15.114Z,51.60
2022-12-25T17:22:41.659Z,43.10
2022-12-25T17:25:11.117Z,45.30
2022-12-25T17:27:37.801Z,63.65
2022-12-25T17:30:04.866Z,54.90
2022-12-25T17:32:31.504Z,54.40
2022-12-25T17:34:58.259Z,45.90
2022-12-25T17:37:25.231Z,40.87
2022-12-25T17:39:51.843Z,33.63
2022-12-25T17:42:18.574Z,24.37
2022-12-25T17:44:46.207Z,29.47
2022-12-25T17:47:12.858Z,32.10
2022-12-25T17:49:39.494Z,26.60
2022-12-25T17:52:06.177Z,29.00
2022-12-25T17:54:32.983Z,23.13
2022-12-25T17:56:59.605Z,25.40
2022-12-25T17:59:30.069Z,30.27
2022-12-25T18:01:56.902Z,27.30
2022-12-25T18:04:24.471Z,25.40
2022-12-25T18:06:51.306Z,25.13
2022-12-25T18:09:18.995Z,23.23
2022-12-25T18:11:45.940Z,18.63
2022-12-25T18:14:15.066Z,18.50
2022-12-25T18:16:44.835Z,18.63
2022-12-25T18:19:12.853Z,19.15
2022-12-25T18:21:39.733Z,24.20
2022-12-25T18:24:07.930Z,17.33
2022-12-25T18:26:34.827Z,19.63
2022-12-25T18:29:01.490Z,14.73
2022-12-25T18:31:30.450Z,16.27
2022-12-25T18:33:58.205Z,14.07
2022-12-25T18:36:26.653Z,18.33
2022-12-25T18:38:55.749Z,12.43
2022-12-25T18:41:24.060Z,13.40
2022-12-25T18:43:55.251Z,11.13
2022-12-25T18:46:25.582Z,13.40
2022-12-25T18:48:53.954Z,14.00
2022-12-25T18:51:20.523Z,14.47
2022-12-25T18:53:47.254Z,12.50
2022-12-25T18:56:15.886Z,16.97
2022-12-25T18:58:42.961Z,18.30
2022-12-25T19:01:12.150Z,15.73
2022-12-25T19:03:39.382Z,14.87
2022-12-25T19:06:06.555Z,14.37
2022-12-25T19:08:33.191Z,13.03
2022-12-25T19:10:59.937Z,15.23
2022-12-25T19:13:26.493Z,13.27
2022-12-25T19:15:58.227Z,26.73
2022-12-25T19:18:26.109Z,17.50
2022-12-25T19:20:52.757Z,25.13
2022-12-25T19:23:19.470Z,19.33
2022-12-25T19:25:46.198Z,21.17
2022-12-25T19:28:12.844Z,30.50
2022-12-25T19:30:42.367Z,21.75
2022-12-25T19:33:14.083Z,25.00
2022-12-25T19:35:44.301Z,24.40
2022-12-25T19:38:10.944Z,22.37
2022-12-25T19:40:39.491Z,20.03
2022-12-25T19:43:06.252Z,29.17
2022-12-25T19:45:33.360Z,21.47
2022-12-25T19:47:59.996Z,34.53
2022-12-25T19:50:28.657Z,34.70
2022-12-25T19:52:55.800Z,34.87
2022-12-25T19:55:22.839Z,30.57
2022-12-25T19:57:49.717Z,27.70
2022-12-25T20:00:16.864Z,26.10
2022-12-25T20:02:43.768Z,23.67
2022-12-25T20:05:10.668Z,33.20
2022-12-25T20:07:37.304Z,32.03
2022-12-25T20:10:04.043Z,31.90
2022-12-25T20:12:30.752Z,24.13
2022-12-25T20:14:57.521Z,32.67
2022-12-25T20:17:24.345Z,31.23
2022-12-25T20:19:51.063Z,30.37
2022-12-25T20:22:18.081Z,28.37
2022-12-25T20:24:44.973Z,27.50
2022-12-25T20:27:11.713Z,31.37
2022-12-25T20:29:39.237Z,30.70
2022-12-25T20:32:05.957Z,28.60
2022-12-25T20:34:32.652Z,29.70
2022-12-25T20:36:59.234Z,31.00
2022-12-25T20:39:25.891Z,30.37
2022-12-25T20:41:52.528Z,28.37
2022-12-25T20:44:19.722Z,30.80
2022-12-25T20:46:46.323Z,31.33
2022-12-25T20:49:13.398Z,33.37
2022-12-25T20:51:40.383Z,33.40
2022-12-25T20:54:09.522Z,27.27
2022-12-25T20:56:36.675Z,31.90
2022-12-25T20:59:03.267Z,31.43
2022-12-25T21:01:31.541Z,32.73
2022-12-25T21:03:59.201Z,31.87
2022-12-25T21:06:26.615Z,31.23
2022-12-25T21:08:53.517Z,30.23
2022-12-25T21:11:21.430Z,30.87
2022-12-25T21:13:49.118Z,32.20
2022-12-25T21:16:20.194Z,31.80
2022-12-25T21:18:48.376Z,30.67
2022-12-25T21:21:15.391Z,35.77
2022-12-25T21:23:42.320Z,32.57
2022-12-25T21:26:19.643Z,35.93
2022-12-25T21:28:50.683Z,33.80
2022-12-25T21:31:18.484Z,32.20
2022-12-25T21:33:51.552Z,31.80
2022-12-25T21:36:30.632Z,32.77
2022-12-25T21:39:08.502Z,38.73
2022-12-25T21:41:37.407Z,36.97
2022-12-25T21:44:04.412Z,38.63
2022-12-25T21:46:31.549Z,29.70
2022-12-25T21:48:59.120Z,30.50
2022-12-25T21:51:47.957Z,28.60
2022-12-25T21:54:15.991Z,30.83
2022-12-25T21:56:45.785Z,29.30
2022-12-25T21:59:18.507Z,32.88
2022-12-25T22:01:46.010Z,31.37
2022-12-25T22:04:14.187Z,26.70
2022-12-25T22:07:00.210Z,26.47
2022-12-25T22:09:26.885Z,29.00
2022-12-25T22:12:11.840Z,28.63
2022-12-25T22:14:54.356Z,26.67
2022-12-25T22:17:49.013Z,22.13
2022-12-25T22:20:24.766Z,29.67
2022-12-25T22:22:51.993Z,26.27
2022-12-25T22:25:19.488Z,25.77
2022-12-25T22:27:47.583Z,26.10
2022-12-25T22:30:17.397Z,23.00
2022-12-25T22:32:44.837Z,24.33
2022-12-25T22:35:14.939Z,26.17
2022-12-25T22:37:42.746Z,24.27
2022-12-25T22:40:11.607Z,23.43
2022-12-25T22:42:38.303Z,23.17
2022-12-25T22:45:05.470Z,25.83
2022-12-25T22:47:32.539Z,22.77
2022-12-25T22:49:59.274Z,23.50
2022-12-25T22:52:25.868Z,25.80
2022-12-25T22:54:52.509Z,25.83
2022-12-25T22:57:19.381Z,26.33
2022-12-25T22:59:45.980Z,25.33
2022-12-25T23:02:12.712Z,25.10
2022-12-25T23:04:39.401Z,25.17
2022-12-25T23:07:05.991Z,22.47
2022-12-25T23:09:32.964Z,25.27
2022-12-25T23:11:59.570Z,26.13
2022-12-25T23:14:39.303Z,25.83
2022-12-25T23:17:47.100Z,20.17
2022-12-25T23:20:33.566Z,21.87
2022-12-25T23:23:19.775Z,22.63
2022-12-25T23:26:05.188Z,23.77
2022-12-25T23:28:50.340Z,22.70
2022-12-25T23:31:17.258Z,20.10
2022-12-25T23:33:44.042Z,23.07
2022-12-25T23:36:10.821Z,24.47
2022-12-25T23:38:37.379Z,19.10
2022-12-25T23:41:03.992Z,21.43
2022-12-25T23:43:30.696Z,21.87
2022-12-25T23:45:59.744Z,23.93
2022-12-25T23:48:27.945Z,21.33
2022-12-25T23:50:56.131Z,21.67
2022-12-25T23:53:23.704Z,23.20
2022-12-25T23:55:55.580Z,21.30
2022-12-25T23:58:22.389Z,22.60
